Time;durP1;ratioP1;P1;durP2;ratioP2;P2;SDS_P1;SDS_P2;PMS_P1;PMS_P2;Temp;Humidity;BMP_temperature;BMP_pressure;BME280_temperature;BME280_humidity;BME280_pressure;Samples;Min_cycle;Max_cycle;Signal;HPM_P1;HPM_P2
2023/05/16 00:25:38;;;;;;;11.33;9.73;;;18.70;73.80;;;;;;5029251;28;20432;-79
2023/05/16 00:28:05;;;;;;;13.07;10.87;;;18.70;73.90;;;;;;5032722;28;20944;-80
2023/05/16 00:30:32;;;;;;;11.13;10.03;;;18.70;73.20;;;;;;4981697;28;20460;-80
2023/05/16 00:32:59;;;;;;;12.33;11.13;;;18.70;73.20;;;;;;5033164;28;20451;-80
2023/05/16 00:35:26;;;;;;;10.83;9.20;;;18.70;73.20;;;;;;5033280;28;20495;-80
2023/05/16 00:37:53;;;;;;;12.33;11.10;;;18.70;73.20;;;;;;5033174;28;20451;-80
2023/05/16 00:40:20;;;;;;;12.00;10.80;;;18.70;73.20;;;;;;5032981;28;20448;-79
2023/05/16 00:42:48;;;;;;;12.70;11.20;;;18.70;73.20;;;;;;5032218;28;20485;-80
2023/05/16 00:45:15;;;;;;;11.53;10.30;;;18.80;74.00;;;;;;5033287;28;20449;-80
2023/05/16 00:47:42;;;;;;;12.67;11.37;;;18.70;73.00;;;;;;5033049;28;20443;-80
2023/05/16 00:50:10;;;;;;;14.67;11.80;;;18.80;73.00;;;;;;5033054;28;20790;-80
2023/05/16 00:52:37;;;;;;;12.90;11.70;;;18.80;72.90;;;;;;5032841;28;20195;-82
2023/05/16 00:55:05;;;;;;;14.43;13.00;;;18.70;72.80;;;;;;5015298;28;20475;-81
2023/05/16 00:57:32;;;;;;;13.47;12.07;;;18.70;72.80;;;;;;5032956;28;20493;-81
2023/05/16 01:00:00;;;;;;;13.60;12.17;;;18.70;73.00;;;;;;5032809;28;20210;-82
2023/05/16 01:02:29;;;;;;;14.57;11.77;;;18.70;72.90;;;;;;5032751;28;20246;-81
2023/05/16 01:04:56;;;;;;;12.77;11.57;;;18.70;72.80;;;;;;5032969;28;20453;-81
2023/05/16 01:07:23;;;;;;;14.33;12.83;;;18.70;72.70;;;;;;5032738;28;20465;-80
2023/05/16 01:09:50;;;;;;;14.07;12.60;;;18.60;72.40;;;;;;5032252;28;20457;-78
2023/05/16 01:12:23;;;;;;;13.63;12.23;;;18.60;72.50;;;;;;5014660;28;20450;-78
2023/05/16 01:15:00;;;;;;;14.37;12.87;;;18.60;72.60;;;;;;5032066;28;20552;-80
2023/05/16 01:17:36;;;;;;;15.43;13.47;;;18.60;72.50;;;;;;5032171;28;20206;-78
2023/05/16 01:20:13;;;;;;;16.47;13.33;;;18.70;72.50;;;;;;5032257;28;20206;-79
2023/05/16 01:22:52;;;;;;;14.80;12.90;;;18.60;72.30;;;;;;5021417;28;20507;-79
2023/05/16 01:25:31;;;;;;;14.83;12.83;;;18.60;72.60;;;;;;5052370;28;20539;-79
2023/05/16 01:28:02;;;;;;;14.60;12.53;;;18.60;72.60;;;;;;4998016;28;20445;-79
2023/05/16 01:30:34;;;;;;;14.77;13.20;;;18.60;72.60;;;;;;5032400;28;20473;-78
2023/05/16 01:33:01;;;;;;;14.60;13.10;;;18.60;72.80;;;;;;5031990;28;20794;-78
2023/05/16 01:35:29;;;;;;;15.50;13.90;;;18.60;72.90;;;;;;5032248;28;20449;-78
2023/05/16 01:38:04;;;;;;;14.33;12.93;;;18.60;72.90;;;;;;5031939;28;20454;-78
2023/05/16 01:40:38;;;;;;;16.40;14.47;;;18.50;72.90;;;;;;5032000;28;20472;-79
2023/05/16 01:43:17;;;;;;;15.50;13.90;;;18.50;73.40;;;;;;5031888;28;20477;-79
2023/05/16 01:45:51;;;;;;;16.63;14.37;;;18.40;73.40;;;;;;5031624;28;20541;-79
2023/05/16 01:48:22;;;;;;;15.50;13.90;;;18.50;73.50;;;;;;5031687;28;20457;-80
2023/05/16 01:50:56;;;;;;;16.63;13.73;;;18.40;73.50;;;;;;5020997;28;20217;-79
2023/05/16 01:53:28;;;;;;;16.37;14.67;;;18.40;73.70;;;;;;5040109;28;20476;-80
2023/05/16 01:55:58;;;;;;;15.03;13.43;;;18.40;73.50;;;;;;5031952;28;20460;-78
2023/05/16 01:58:30;;;;;;;16.57;14.87;;;18.40;73.70;;;;;;4996241;28;20457;-79
2023/05/16 02:01:02;;;;;;;16.80;15.00;;;18.40;73.70;;;;;;5031890;28;20461;-80
2023/05/16 02:03:29;;;;;;;17.47;14.03;;;18.40;73.80;;;;;;5031417;28;20469;-80
2023/05/16 02:05:56;;;;;;;20.90;18.10;;;18.30;73.90;;;;;;5031665;28;21012;-80
2023/05/16 02:08:24;;;;;;;20.57;17.60;;;18.30;73.60;;;;;;5032423;28;20540;-78
2023/05/16 02:10:51;;;;;;;19.50;17.40;;;18.30;73.80;;;;;;5015971;28;20567;-79
2023/05/16 02:13:18;;;;;;;19.63;17.53;;;18.30;73.90;;;;;;5034461;28;20449;-78
2023/05/16 02:15:46;;;;;;;20.93;18.67;;;18.30;73.90;;;;;;5054523;28;20452;-78
2023/05/16 02:18:13;;;;;;;24.93;19.30;;;18.30;73.60;;;;;;5048739;28;21017;-77
2023/05/16 02:20:40;;;;;;;22.47;20.07;;;18.30;73.50;;;;;;5031878;28;20449;-78
2023/05/16 02:23:07;;;;;;;20.77;18.63;;;18.30;73.60;;;;;;5031194;28;20497;-78
2023/05/16 02:25:34;;;;;;;21.50;19.13;;;18.20;73.60;;;;;;5031452;28;20536;-78
2023/05/16 02:28:00;;;;;;;23.17;20.47;;;18.20;73.70;;;;;;5031365;28;20532;-79
2023/05/16 02:30:27;;;;;;;26.17;19.33;;;18.20;73.60;;;;;;5031359;28;20459;-79
2023/05/16 02:32:56;;;;;;;23.03;19.70;;;18.20;73.50;;;;;;5031420;28;20460;-78
2023/05/16 02:35:23;;;;;;;21.90;19.60;;;18.20;73.80;;;;;;5030908;28;20544;-79
2023/05/16 02:37:50;;;;;;;20.97;18.40;;;18.20;73.50;;;;;;5031020;28;20453;-80
2023/05/16 02:40:17;;;;;;;20.40;18.13;;;18.20;73.90;;;;;;5030739;28;20577;-78
2023/05/16 02:42:44;;;;;;;22.97;18.60;;;18.20;73.90;;;;;;5030591;28;20484;-79
2023/05/16 02:45:11;;;;;;;22.37;18.63;;;18.20;73.50;;;;;;5030838;28;20512;-78
2023/05/16 02:47:38;;;;;;;19.77;16.83;;;18.20;73.40;;;;;;5031282;28;20975;-78
2023/05/16 02:50:07;;;;;;;22.90;18.70;;;18.20;73.40;;;;;;5031217;28;20805;-77
2023/05/16 02:52:34;;;;;;;25.53;20.53;;;18.20;73.50;;;;;;5030340;28;20453;-79
2023/05/16 02:55:01;;;;;;;20.50;17.43;;;18.10;73.40;;;;;;5030870;28;20445;-79
2023/05/16 02:57:28;;;;;;;20.23;17.07;;;18.20;73.60;;;;;;5042501;28;20449;-79
2023/05/16 02:59:55;;;;;;;21.93;18.00;;;18.20;73.80;;;;;;5032821;28;20540;-78
2023/05/16 03:02:22;;;;;;;21.93;18.43;;;18.10;73.80;;;;;;5030932;28;20481;-78
2023/05/16 03:04:49;;;;;;;20.50;17.57;;;18.10;73.80;;;;;;5030699;28;20832;-78
2023/05/16 03:07:17;;;;;;;21.97;18.23;;;18.10;74.00;;;;;;5033333;28;21118;-77
2023/05/16 03:09:44;;;;;;;22.83;18.60;;;18.10;74.10;;;;;;5034705;28;20499;-78
2023/05/16 03:12:11;;;;;;;21.77;18.03;;;18.10;73.80;;;;;;5034405;28;20453;-76
2023/05/16 03:14:38;;;;;;;21.40;18.57;;;18.10;74.00;;;;;;5039060;28;20483;-80
2023/05/16 03:17:05;;;;;;;20.33;17.87;;;18.10;73.80;;;;;;5034724;28;20540;-78
2023/05/16 03:19:32;;;;;;;22.80;18.07;;;18.10;73.70;;;;;;5034659;28;20460;-76
2023/05/16 03:21:59;;;;;;;20.73;16.77;;;18.10;73.80;;;;;;5034672;28;21148;-75
2023/05/16 03:24:27;;;;;;;21.90;18.67;;;18.00;73.80;;;;;;5034405;28;20531;-78
2023/05/16 03:26:54;;;;;;;20.37;16.17;;;18.10;73.80;;;;;;5034264;28;20899;-76
2023/05/16 03:29:21;;;;;;;18.43;15.77;;;18.00;73.70;;;;;;5034429;28;20544;-78
2023/05/16 03:31:47;;;;;;;21.47;16.77;;;18.10;73.80;;;;;;5034090;28;20467;-78
2023/05/16 03:34:14;;;;;;;19.30;15.97;;;18.10;73.80;;;;;;5033974;28;20455;-75
2023/05/16 03:36:42;;;;;;;21.53;17.60;;;18.10;73.90;;;;;;5034287;28;20446;-78
2023/05/16 03:39:12;;;;;;;18.20;15.27;;;18.10;73.80;;;;;;5034281;28;20441;-78
2023/05/16 03:41:40;;;;;;;17.90;15.13;;;18.10;73.60;;;;;;5029885;28;20557;-79
2023/05/16 03:44:07;;;;;;;20.37;15.57;;;18.10;73.60;;;;;;5034337;28;20484;-78
2023/05/16 03:46:34;;;;;;;20.50;16.00;;;18.10;73.40;;;;;;5034158;28;20465;-78
2023/05/16 03:49:01;;;;;;;18.03;14.87;;;18.10;73.40;;;;;;5034366;28;20476;-75
2023/05/16 03:51:29;;;;;;;19.80;15.57;;;18.00;73.30;;;;;;4982626;28;20480;-77
2023/05/16 03:53:56;;;;;;;18.03;15.73;;;18.10;73.30;;;;;;5033521;28;20453;-76
2023/05/16 03:56:23;;;;;;;17.83;15.53;;;18.00;73.20;;;;;;5033568;28;20519;-77
2023/05/16 03:58:51;;;;;;;21.13;16.10;;;18.00;73.20;;;;;;5033396;28;20477;-78
2023/05/16 04:01:19;;;;;;;20.10;16.00;;;18.00;73.30;;;;;;5033985;28;20688;-77
2023/05/16 04:03:46;;;;;;;17.10;15.13;;;18.00;73.40;;;;;;5033532;28;20479;-78
2023/05/16 04:06:13;;;;;;;19.07;14.90;;;18.00;73.50;;;;;;5033392;28;20537;-79
2023/05/16 04:08:43;;;;;;;20.30;14.97;;;17.90;73.40;;;;;;5033403;28;20460;-79
2023/05/16 04:11:10;;;;;;;18.33;14.83;;;18.00;73.40;;;;;;5033513;28;20511;-80
2023/05/16 04:13:37;;;;;;;16.90;13.97;;;17.90;73.40;;;;;;5033200;28;20906;-80
2023/05/16 04:16:06;;;;;;;17.23;13.77;;;17.90;73.30;;;;;;5033368;28;20531;-80
2023/05/16 04:18:33;;;;;;;17.47;14.73;;;17.90;73.40;;;;;;5014834;28;20453;-79
2023/05/16 04:21:00;;;;;;;18.77;14.80;;;17.90;73.30;;;;;;5015876;28;20548;-79
2023/05/16 04:23:27;;;;;;;14.77;12.93;;;17.90;73.40;;;;;;5032898;28;20567;-79
2023/05/16 04:25:55;;;;;;;17.37;13.83;;;17.90;73.40;;;;;;5015864;28;20477;-79
2023/05/16 04:28:22;;;;;;;17.50;14.87;;;17.90;73.40;;;;;;5033552;28;20496;-79
2023/05/16 04:30:49;;;;;;;16.97;13.47;;;17.90;73.20;;;;;;5033362;28;20476;-79
2023/05/16 04:33:17;;;;;;;16.60;13.50;;;17.80;73.00;;;;;;5032983;28;20807;-79
2023/05/16 04:35:44;;;;;;;17.57;13.83;;;17.80;73.00;;;;;;5032505;28;20450;-78
2023/05/16 04:38:11;;;;;;;15.53;12.77;;;17.80;73.10;;;;;;5032913;28;20453;-80
2023/05/16 04:40:40;;;;;;;17.50;13.37;;;17.90;73.20;;;;;;5032701;28;20457;-80
2023/05/16 04:43:07;;;;;;;16.03;14.10;;;17.80;73.00;;;;;;5032675;28;20483;-80
2023/05/16 04:45:34;;;;;;;13.47;11.93;;;17.80;72.90;;;;;;5032900;28;20453;-79
2023/05/16 04:48:01;;;;;;;16.03;13.40;;;17.80;72.90;;;;;;5032530;28;20540;-79
2023/05/16 04:50:29;;;;;;;17.87;13.90;;;17.80;73.00;;;;;;5032836;28;20882;-80
2023/05/16 04:52:56;;;;;;;15.27;12.77;;;17.80;73.00;;;;;;5032917;28;20484;-77
2023/05/16 04:55:23;;;;;;;17.53;13.70;;;17.80;73.00;;;;;;5032333;28;20465;-80
2023/05/16 04:57:50;;;;;;;16.70;12.87;;;17.80;73.00;;;;;;5032880;28;20453;-80
2023/05/16 05:00:17;;;;;;;15.03;11.67;;;17.80;73.00;;;;;;5032484;28;20459;-80
2023/05/16 05:02:44;;;;;;;16.47;12.77;;;17.80;73.00;;;;;;5032164;28;20479;-79
2023/05/16 05:05:11;;;;;;;16.80;12.53;;;17.80;72.90;;;;;;5032449;28;20453;-81
2023/05/16 05:07:40;;;;;;;17.23;12.47;;;17.80;72.80;;;;;;5032763;28;20459;-80
2023/05/16 05:10:07;;;;;;;17.63;12.97;;;17.80;72.70;;;;;;5032337;28;20453;-80
2023/05/16 05:12:35;;;;;;;17.07;13.13;;;17.80;72.60;;;;;;5032317;28;20532;-80
2023/05/16 05:15:02;;;;;;;17.73;11.67;;;17.70;72.50;;;;;;5032095;28;20465;-80
2023/05/16 05:17:29;;;;;;;19.87;13.10;;;17.70;72.90;;;;;;5031812;28;20540;-75
2023/05/16 05:19:56;;;;;;;15.10;11.13;;;17.80;73.00;;;;;;5031009;28;20485;-75
2023/05/16 05:22:23;;;;;;;14.27;11.50;;;17.80;72.90;;;;;;5030682;28;20477;-77
2023/05/16 05:24:51;;;;;;;15.47;10.63;;;17.90;72.80;;;;;;5035076;28;20479;-75
2023/05/16 05:27:18;;;;;;;14.30;11.43;;;17.90;72.90;;;;;;5031674;28;20454;-76
2023/05/16 05:29:45;;;;;;;14.63;12.13;;;17.90;72.70;;;;;;5030706;28;20540;-76
2023/05/16 05:32:12;;;;;;;17.47;11.97;;;17.90;72.60;;;;;;5032574;28;20484;-76
2023/05/16 05:34:40;;;;;;;16.53;11.93;;;18.00;72.60;;;;;;5032316;28;20850;-77
2023/05/16 05:37:08;;;;;;;15.67;11.50;;;18.00;72.70;;;;;;5015314;28;20482;-77
2023/05/16 05:39:35;;;;;;;16.63;11.03;;;18.00;72.30;;;;;;5031927;28;20552;-77
2023/05/16 05:42:04;;;;;;;17.77;11.97;;;18.00;72.50;;;;;;5030839;28;21017;-75
2023/05/16 05:44:31;;;;;;;15.40;11.47;;;18.00;72.50;;;;;;5013211;28;20492;-76
2023/05/16 05:46:58;;;;;;;13.67;10.20;;;18.00;72.40;;;;;;5012927;28;20456;-77
2023/05/16 05:49:25;;;;;;;10.37;8.90;;;18.00;72.60;;;;;;5030026;28;20469;-75
2023/05/16 05:51:52;;;;;;;12.23;9.00;;;18.00;72.50;;;;;;5029849;28;20457;-74
2023/05/16 05:54:19;;;;;;;12.90;9.43;;;18.10;72.20;;;;;;5030652;28;20838;-74
2023/05/16 05:56:47;;;;;;;12.37;9.83;;;18.10;71.90;;;;;;5030464;28;20791;-74
2023/05/16 05:59:15;;;;;;;12.40;9.13;;;18.00;71.90;;;;;;5029665;28;20455;-80
2023/05/16 06:01:51;;;;;;;11.50;8.97;;;18.00;71.90;;;;;;4997457;28;20462;-79
2023/05/16 06:04:18;;;;;;;9.60;8.57;;;18.00;71.80;;;;;;5011561;28;20513;-80
2023/05/16 06:06:45;;;;;;;12.27;9.17;;;18.00;71.50;;;;;;5012923;28;20460;-79
2023/05/16 06:09:12;;;;;;;10.30;7.77;;;18.00;71.40;;;;;;5030283;28;20460;-80
2023/05/16 06:11:39;;;;;;;10.83;7.90;;;18.10;71.50;;;;;;5031569;28;20511;-81
2023/05/16 06:14:06;;;;;;;9.63;7.33;;;18.10;71.40;;;;;;5031249;28;20872;-79
2023/05/16 06:16:34;;;;;;;8.90;7.40;;;18.10;71.30;;;;;;4996079;28;20462;-80
2023/05/16 06:19:01;;;;;;;7.43;6.63;;;18.10;71.40;;;;;;5031245;28;20624;-81
2023/05/16 06:21:28;;;;;;;6.60;5.87;;;18.10;71.40;;;;;;5031556;28;20949;-80
2023/05/16 06:23:55;;;;;;;6.70;5.73;;;18.10;71.50;;;;;;5031402;28;20519;-80
2023/05/16 06:26:22;;;;;;;6.90;5.70;;;18.20;71.60;;;;;;5027914;28;20472;-81
2023/05/16 06:28:49;;;;;;;7.43;6.20;;;18.20;71.30;;;;;;5032221;28;20457;-80
2023/05/16 06:31:16;;;;;;;7.33;5.43;;;18.20;71.40;;;;;;5032214;28;20464;-81
2023/05/16 06:33:44;;;;;;;7.07;5.60;;;18.30;71.40;;;;;;5028382;28;20877;-81
2023/05/16 06:36:11;;;;;;;6.77;5.27;;;18.30;70.90;;;;;;5032106;28;20481;-80
2023/05/16 06:38:38;;;;;;;5.20;4.70;;;18.20;70.80;;;;;;5033267;28;20457;-79
2023/05/16 06:41:05;;;;;;;6.23;4.97;;;18.30;70.80;;;;;;5033785;28;20484;-80
2023/05/16 06:43:32;;;;;;;6.07;4.50;;;18.30;70.90;;;;;;5037071;28;20318;-81
2023/05/16 06:45:59;;;;;;;6.80;4.67;;;18.30;70.90;;;;;;5036817;28;20540;-78
2023/05/16 06:48:26;;;;;;;6.47;4.43;;;18.20;71.00;;;;;;5037272;28;20485;-80
2023/05/16 06:50:54;;;;;;;6.03;4.40;;;18.20;70.90;;;;;;5037088;28;20448;-77
2023/05/16 06:53:21;;;;;;;4.83;4.00;;;18.20;70.80;;;;;;5036457;28;20859;-82
2023/05/16 06:55:48;;;;;;;4.40;3.93;;;18.20;70.80;;;;;;5036341;28;20520;-81
2023/05/16 06:58:15;;;;;;;4.27;3.87;;;18.30;70.90;;;;;;5036458;28;20551;-81
2023/05/16 07:00:42;;;;;;;5.00;4.10;;;18.30;70.90;;;;;;5035948;28;20523;-81
2023/05/16 07:03:09;;;;;;;4.27;3.50;;;18.30;70.90;;;;;;5036773;28;20871;-81
2023/05/16 07:05:36;;;;;;;3.37;3.00;;;18.30;70.80;;;;;;5036630;28;20477;-80
2023/05/16 07:08:05;;;;;;;3.07;2.77;;;18.30;70.30;;;;;;5036084;28;20992;-80
2023/05/16 07:10:32;;;;;;;3.73;2.93;;;18.30;70.40;;;;;;5036016;28;20876;-81
2023/05/16 07:13:00;;;;;;;3.90;3.50;;;18.30;70.20;;;;;;5035158;28;20552;-79
2023/05/16 07:15:27;;;;;;;3.53;2.40;;;18.20;69.80;;;;;;5036022;28;20483;-79
2023/05/16 07:17:54;;;;;;;3.70;2.57;;;18.30;70.10;;;;;;5036109;28;20881;-81
2023/05/16 07:20:21;;;;;;;3.00;2.27;;;18.30;70.10;;;;;;5036200;28;20508;-79
2023/05/16 07:22:48;;;;;;;2.20;2.00;;;18.30;69.80;;;;;;5035580;28;20540;-80
2023/05/16 07:25:16;;;;;;;2.93;2.17;;;18.30;69.60;;;;;;5035967;28;20596;-80
2023/05/16 07:27:43;;;;;;;2.30;2.10;;;18.40;69.70;;;;;;5035818;28;20903;-80
2023/05/16 07:30:12;;;;;;;2.77;1.83;;;18.40;69.70;;;;;;5035905;28;20880;-80
2023/05/16 07:32:39;;;;;;;2.30;2.10;;;18.40;69.20;;;;;;5018157;28;20235;-80
2023/05/16 07:35:08;;;;;;;1.93;1.70;;;18.50;69.20;;;;;;5035803;28;20578;-81
2023/05/16 07:37:35;;;;;;;2.40;1.93;;;18.50;69.10;;;;;;5035614;28;20459;-80
2023/05/16 07:40:03;;;;;;;1.67;1.57;;;18.50;68.50;;;;;;5018343;28;20642;-80
2023/05/16 07:42:31;;;;;;;2.47;1.70;;;18.50;68.80;;;;;;5035629;28;20824;-78
2023/05/16 07:45:00;;;;;;;1.50;1.40;;;18.40;68.60;;;;;;5034879;28;20234;-78
2023/05/16 07:47:27;;;;;;;1.47;1.37;;;18.40;68.60;;;;;;5035219;28;20941;-80
2023/05/16 07:49:54;;;;;;;2.17;1.53;;;18.40;68.60;;;;;;5035440;28;20206;-80
2023/05/16 07:52:21;;;;;;;1.43;1.33;;;18.40;68.80;;;;;;5034625;28;20253;-80
2023/05/16 07:54:48;;;;;;;1.63;1.50;;;18.50;68.70;;;;;;5035383;28;20537;-81
2023/05/16 07:57:15;;;;;;;2.03;1.30;;;18.50;69.60;;;;;;5035318;28;20540;-80
2023/05/16 07:59:44;;;;;;;1.63;1.40;;;18.50;68.80;;;;;;5035053;28;20826;-80
2023/05/16 08:02:12;;;;;;;1.70;1.60;;;18.50;68.60;;;;;;5034924;28;20203;-80
2023/05/16 08:04:39;;;;;;;1.40;1.30;;;18.50;68.60;;;;;;5034473;28;20485;-80
2023/05/16 08:07:06;;;;;;;2.80;1.63;;;18.60;68.40;;;;;;5034918;28;20453;-80
2023/05/16 08:09:33;;;;;;;1.30;1.20;;;18.50;68.30;;;;;;5035039;28;20206;-80
2023/05/16 08:12:02;;;;;;;1.40;1.30;;;18.50;68.20;;;;;;5017452;28;20468;-78
2023/05/16 08:14:30;;;;;;;1.23;1.17;;;18.50;68.50;;;;;;5034618;28;20257;-79
2023/05/16 08:16:59;;;;;;;1.33;1.23;;;18.60;68.60;;;;;;5017096;28;20594;-79
2023/05/16 08:19:26;;;;;;;1.40;1.30;;;18.60;68.60;;;;;;5035056;28;20457;-79
2023/05/16 08:21:53;;;;;;;2.40;1.70;;;18.60;68.60;;;;;;5034949;28;20217;-80
2023/05/16 08:24:20;;;;;;;1.50;1.40;;;18.60;68.60;;;;;;5035045;28;20253;-80
2023/05/16 08:26:47;;;;;;;2.93;1.60;;;18.50;68.50;;;;;;5034952;28;20203;-80
2023/05/16 08:29:14;;;;;;;1.77;1.67;;;18.50;68.60;;;;;;5017488;28;20479;-81
2023/05/16 08:31:41;;;;;;;1.63;1.53;;;18.50;68.50;;;;;;5035006;28;20460;-81
2023/05/16 08:34:10;;;;;;;1.87;1.57;;;18.50;68.20;;;;;;5034981;28;20473;-78
2023/05/16 08:36:37;;;;;;;3.37;1.40;;;18.60;68.20;;;;;;5035176;28;20198;-80
2023/05/16 08:39:04;;;;;;;2.80;1.47;;;18.60;68.20;;;;;;5034962;28;20949;-79
2023/05/16 08:41:31;;;;;;;1.30;1.20;;;18.60;68.40;;;;;;5035078;28;20548;-79
2023/05/16 08:43:58;;;;;;;1.53;1.30;;;18.60;68.20;;;;;;4996441;28;20534;-80
2023/05/16 08:46:27;;;;;;;1.83;1.50;;;18.60;68.30;;;;;;5015044;28;20481;-79
2023/05/16 08:48:58;;;;;;;2.50;1.30;;;18.60;68.20;;;;;;5033433;28;20454;-79
2023/05/16 08:51:28;;;;;;;1.50;1.40;;;18.60;68.00;;;;;;5034953;28;20784;-80
2023/05/16 08:54:02;;;;;;;1.40;1.30;;;18.50;67.90;;;;;;5034743;28;20458;-79
2023/05/16 08:56:30;;;;;;;1.57;1.30;;;18.50;68.00;;;;;;5034781;28;20465;-80
2023/05/16 08:58:58;;;;;;;1.60;1.50;;;18.50;68.00;;;;;;5034513;28;20277;-80
2023/05/16 09:01:25;;;;;;;1.60;1.50;;;18.50;67.70;;;;;;5034524;28;20458;-80
2023/05/16 09:03:53;;;;;;;1.93;1.20;;;18.50;67.60;;;;;;5033655;28;20234;-79
2023/05/16 09:06:20;;;;;;;2.53;1.33;;;18.40;67.20;;;;;;5034383;28;20452;-79
2023/05/16 09:08:49;;;;;;;1.50;1.40;;;18.30;67.30;;;;;;5034763;28;20453;-77
2023/05/16 09:11:15;;;;;;;1.97;1.40;;;18.30;67.50;;;;;;5034224;28;20478;-75
2023/05/16 09:13:43;;;;;;;2.57;1.13;;;18.20;67.10;;;;;;5034072;28;20556;-79
2023/05/16 09:16:12;;;;;;;1.47;1.37;;;18.20;67.30;;;;;;5034256;28;20477;-78
2023/05/16 09:18:40;;;;;;;1.40;1.20;;;18.30;67.30;;;;;;5033804;28;20457;-75
2023/05/16 09:21:07;;;;;;;1.00;1.00;;;18.40;67.50;;;;;;5034368;28;20477;-79
2023/05/16 09:23:35;;;;;;;1.50;1.40;;;18.40;67.20;;;;;;5034056;28;20242;-77
2023/05/16 09:26:06;;;;;;;1.23;1.13;;;18.50;67.00;;;;;;5033921;28;20489;-80
2023/05/16 09:28:34;;;;;;;1.40;1.30;;;18.60;66.70;;;;;;5034012;28;20453;-80
2023/05/16 09:31:01;;;;;;;1.60;1.30;;;18.60;66.50;;;;;;5033915;28;20449;-79
2023/05/16 09:33:29;;;;;;;1.33;1.23;;;18.70;66.20;;;;;;5034093;28;20504;-79
2023/05/16 09:35:57;;;;;;;1.40;1.30;;;18.80;66.20;;;;;;5033731;28;20460;-75
2023/05/16 09:38:25;;;;;;;2.33;1.30;;;18.80;66.30;;;;;;5034042;28;20480;-77
2023/05/16 09:40:52;;;;;;;1.60;1.40;;;18.90;66.30;;;;;;5033596;28;20456;-79
2023/05/16 09:43:24;;;;;;;1.40;1.30;;;19.10;66.50;;;;;;5033736;28;20206;-79
2023/05/16 09:45:52;;;;;;;1.77;1.20;;;19.20;66.10;;;;;;5033579;28;20475;-79
2023/05/16 09:48:20;;;;;;;1.60;1.50;;;19.30;65.50;;;;;;5033522;28;20965;-77
2023/05/16 09:50:50;;;;;;;1.73;1.10;;;19.50;65.40;;;;;;5033843;28;20904;-80
2023/05/16 09:53:17;;;;;;;1.37;1.27;;;19.60;64.80;;;;;;5033079;28;20566;-78
2023/05/16 09:55:44;;;;;;;1.20;1.10;;;19.70;64.60;;;;;;5033006;28;20265;-76
2023/05/16 09:58:11;;;;;;;1.13;1.13;;;19.80;64.60;;;;;;5033668;28;20297;-77
2023/05/16 10:00:40;;;;;;;1.33;1.23;;;19.90;64.00;;;;;;5033703;28;20206;-76
2023/05/16 10:03:08;;;;;;;1.20;1.10;;;19.90;63.70;;;;;;4979144;28;20253;-78
2023/05/16 10:05:36;;;;;;;2.03;1.20;;;20.00;63.20;;;;;;5023133;28;20214;-79
2023/05/16 10:08:04;;;;;;;1.97;1.20;;;19.90;63.20;;;;;;5033534;28;20230;-76
2023/05/16 10:10:36;;;;;;;1.93;1.17;;;19.90;62.40;;;;;;5033225;28;20205;-74
2023/05/16 10:13:05;;;;;;;2.13;1.20;;;19.70;62.70;;;;;;5033370;28;20238;-76
2023/05/16 10:15:33;;;;;;;1.07;1.00;;;19.80;63.40;;;;;;5015913;28;20214;-79
2023/05/16 10:18:02;;;;;;;1.77;1.43;;;19.80;63.60;;;;;;5033228;28;20452;-78
2023/05/16 10:20:29;;;;;;;2.13;1.27;;;19.90;63.40;;;;;;5033103;28;20237;-75
2023/05/16 10:22:58;;;;;;;2.03;1.20;;;19.90;63.00;;;;;;5015437;28;20203;-78
2023/05/16 10:25:32;;;;;;;1.67;1.23;;;19.80;62.70;;;;;;5033294;28;20325;-80
2023/05/16 10:27:59;;;;;;;1.87;1.07;;;19.80;63.10;;;;;;5033593;28;20289;-79
2023/05/16 10:30:27;;;;;;;2.17;1.10;;;19.80;62.90;;;;;;5033315;28;20236;-77
2023/05/16 10:32:55;;;;;;;0.93;0.90;;;19.70;62.60;;;;;;5033428;28;20289;-80
2023/05/16 10:35:23;;;;;;;1.10;1.00;;;19.60;62.00;;;;;;5033092;28;20702;-78
2023/05/16 10:37:52;;;;;;;1.00;0.80;;;19.50;61.50;;;;;;5032544;28;20289;-74
2023/05/16 10:40:21;;;;;;;1.37;1.13;;;19.30;61.40;;;;;;5033514;28;20293;-80
2023/05/16 10:42:55;;;;;;;0.80;0.80;;;19.20;61.90;;;;;;5015833;28;20289;-75
2023/05/16 10:45:23;;;;;;;0.93;0.93;;;19.10;62.00;;;;;;5032806;28;20681;-78
2023/05/16 10:47:54;;;;;;;1.97;0.70;;;19.00;61.90;;;;;;5032832;28;20199;-78
2023/05/16 10:50:37;;;;;;;0.70;0.70;;;19.00;62.00;;;;;;5033143;28;20655;-79
2023/05/16 10:53:21;;;;;;;1.00;0.90;;;18.90;61.90;;;;;;5033382;28;20245;-79
2023/05/16 10:56:07;;;;;;;1.37;0.70;;;18.80;62.00;;;;;;5033182;28;20464;-82
2023/05/16 10:58:42;;;;;;;1.13;0.60;;;18.80;62.30;;;;;;5033144;28;20266;-80
2023/05/16 11:01:16;;;;;;;0.50;0.50;;;18.80;62.60;;;;;;5033020;28;20532;-79
2023/05/16 11:04:05;;;;;;;0.63;0.63;;;18.70;62.10;;;;;;5032382;28;21005;-80
2023/05/16 11:06:34;;;;;;;6.73;1.23;;;18.70;62.10;;;;;;5013068;28;20683;-81
2023/05/16 11:09:17;;;;;;;1.50;0.67;;;18.90;62.20;;;;;;5028112;28;20477;-80
2023/05/16 11:11:46;;;;;;;2.43;0.80;;;18.90;61.10;;;;;;5032798;28;20202;-75
2023/05/16 11:14:21;;;;;;;0.60;0.60;;;19.00;61.10;;;;;;5032631;28;20606;-78
2023/05/16 11:16:50;;;;;;;2.90;0.70;;;18.90;60.90;;;;;;5032589;28;20198;-78
2023/05/16 11:19:29;;;;;;;0.83;0.67;;;18.90;61.60;;;;;;5032699;28;20202;-80
2023/05/16 11:22:21;;;;;;;1.43;0.60;;;19.00;62.30;;;;;;5032485;28;20441;-80
2023/05/16 11:24:54;;;;;;;0.60;0.60;;;19.10;61.60;;;;;;4998044;28;20317;-80
2023/05/16 11:27:23;;;;;;;0.70;0.60;;;19.20;61.70;;;;;;4999512;28;20562;-80
2023/05/16 11:29:50;;;;;;;2.00;0.80;;;19.20;61.30;;;;;;5036533;28;20210;-77
2023/05/16 11:32:21;;;;;;;3.27;0.93;;;19.30;60.50;;;;;;5036592;28;20226;-79
2023/05/16 11:34:49;;;;;;;1.10;0.93;;;19.40;60.40;;;;;;5036059;28;20827;-79
2023/05/16 11:37:18;;;;;;;1.10;1.00;;;19.40;59.50;;;;;;5036046;28;20237;-77
2023/05/16 11:39:46;;;;;;;1.10;0.77;;;19.40;59.80;;;;;;5036341;28;20455;-79
2023/05/16 11:42:13;;;;;;;1.83;0.97;;;19.50;60.00;;;;;;5036023;28;20233;-81
2023/05/16 11:44:40;;;;;;;1.00;0.90;;;19.50;59.50;;;;;;5036175;28;20256;-79
2023/05/16 11:47:08;;;;;;;1.07;1.00;;;19.50;60.10;;;;;;5036498;28;20222;-79
2023/05/16 11:49:35;;;;;;;6.33;1.33;;;19.50;60.90;;;;;;5036213;28;20220;-79
2023/05/16 11:52:02;;;;;;;1.80;0.80;;;19.60;60.20;;;;;;5036017;28;20210;-78
2023/05/16 11:54:31;;;;;;;1.43;0.87;;;19.60;60.00;;;;;;5035911;28;20226;-77
2023/05/16 11:56:58;;;;;;;0.80;0.63;;;19.60;59.50;;;;;;5036255;28;20252;-79
2023/05/16 11:59:26;;;;;;;0.83;0.70;;;19.50;59.30;;;;;;5035995;28;20234;-79
2023/05/16 12:01:52;;;;;;;1.70;1.00;;;19.40;59.10;;;;;;5017952;28;20298;-78
2023/05/16 12:04:20;;;;;;;1.73;1.17;;;19.30;59.70;;;;;;5035961;28;20256;-80
2023/05/16 12:07:00;;;;;;;0.80;0.80;;;19.20;58.90;;;;;;5035578;28;20520;-78
2023/05/16 12:09:26;;;;;;;1.17;1.07;;;19.30;59.10;;;;;;5034546;28;20213;-79
2023/05/16 12:11:55;;;;;;;1.13;0.80;;;19.30;59.00;;;;;;5035401;28;20567;-77
2023/05/16 12:14:22;;;;;;;1.20;1.00;;;19.30;59.00;;;;;;5035189;28;20305;-80
2023/05/16 12:16:51;;;;;;;1.00;1.00;;;19.20;58.60;;;;;;5035467;28;20469;-81
2023/05/16 12:19:19;;;;;;;1.20;1.10;;;19.30;58.60;;;;;;5035455;28;20213;-80
2023/05/16 12:21:46;;;;;;;1.00;0.90;;;19.40;58.50;;;;;;5035351;28;20658;-81
2023/05/16 12:24:13;;;;;;;2.30;1.07;;;19.40;58.70;;;;;;5035313;28;20229;-79
2023/05/16 12:26:43;;;;;;;2.23;1.07;;;19.50;58.80;;;;;;5031864;28;20285;-80
2023/05/16 12:29:12;;;;;;;0.80;0.80;;;19.50;58.50;;;;;;5034286;28;20202;-79
2023/05/16 12:31:40;;;;;;;1.00;0.90;;;19.50;58.40;;;;;;5035228;28;20600;-79
2023/05/16 12:34:17;;;;;;;2.33;1.20;;;19.50;58.70;;;;;;5034797;28;20980;-80
2023/05/16 12:36:44;;;;;;;1.57;1.07;;;19.40;58.60;;;;;;5035472;28;20229;-80
2023/05/16 12:39:13;;;;;;;0.90;0.90;;;19.40;58.90;;;;;;5034111;28;20237;-80
2023/05/16 12:41:41;;;;;;;2.63;1.40;;;19.40;58.80;;;;;;5035229;28;20214;-79
2023/05/16 12:44:15;;;;;;;2.60;1.00;;;19.30;59.00;;;;;;5034912;28;20226;-79
2023/05/16 12:46:47;;;;;;;2.93;1.37;;;19.30;59.00;;;;;;5034810;28;20711;-80
2023/05/16 12:49:14;;;;;;;2.17;1.53;;;19.30;59.30;;;;;;5035041;28;20206;-80
2023/05/16 12:51:47;;;;;;;2.17;1.73;;;19.30;59.30;;;;;;5035102;28;20289;-81
2023/05/16 12:54:15;;;;;;;2.63;1.50;;;19.30;59.20;;;;;;5034636;28;20248;-80
2023/05/16 12:56:43;;;;;;;3.30;1.70;;;19.20;58.90;;;;;;5034795;28;20234;-79
2023/05/16 12:59:11;;;;;;;4.70;1.87;;;19.20;58.80;;;;;;5034792;28;20218;-79
2023/05/16 13:01:40;;;;;;;5.33;2.07;;;19.20;58.90;;;;;;5034790;28;20481;-80
2023/05/16 13:04:13;;;;;;;3.47;1.60;;;19.20;58.80;;;;;;5014832;28;20203;-80
2023/05/16 13:06:40;;;;;;;3.03;1.77;;;19.20;58.90;;;;;;5015142;28;20231;-80
2023/05/16 13:09:07;;;;;;;2.67;2.00;;;19.20;58.80;;;;;;4997554;28;20250;-79